Cibecue, Arizona
Current Conditions -  °F | °C
As of 10:15 AM on Sunday 23 Nov 2014 (Local Time) from KSOW Reporting Station
Overcast Overcast  
Wind Chill: 29°   Ceiling: 4900
Heat Index: 39°   Visibility: 10mi
Dew Point: 14°   Wind: 22mph
Humidity: 36%   Direction: 320°NW
Pressure: 30.14"   Gusts: 30mph
Location:  34.03°N, 110.48°W
Report Text: KSOW 231715Z AUTO 32019G26KT 10SM SCT042 BKN049 OVC055 04/M10 A3014 RMK AO2
Loading
Personal Weather Stations






























Interactive Weather Map New forecast layout! Learn more

10-Day Weather Forecast

Advertisements
Track Severe Weather on mobile